createdAt,value
2019-04-07T00:00:09.336Z,34.98
2019-04-07T00:02:38.549Z,31.90
2019-04-07T00:05:12.356Z,32.75
2019-04-07T00:07:38.257Z,33.20
2019-04-07T00:10:09.847Z,34.40
2019-04-07T00:12:38.618Z,33.98
2019-04-07T00:15:07.406Z,34.18
2019-04-07T00:17:36.254Z,33.78
2019-04-07T00:20:05.487Z,33.75
2019-04-07T00:22:34.539Z,32.80
2019-04-07T00:25:04.084Z,32.08
2019-04-07T00:27:33.380Z,32.90
2019-04-07T00:30:02.308Z,33.83
2019-04-07T00:32:30.865Z,34.23
2019-04-07T00:34:59.969Z,35.08
2019-04-07T00:37:28.722Z,34.95
2019-04-07T00:39:57.782Z,33.25
2019-04-07T00:42:27.412Z,34.70
2019-04-07T00:44:56.264Z,34.13
2019-04-07T00:47:24.961Z,35.08
2019-04-07T00:49:53.877Z,33.73
2019-04-07T00:52:23.667Z,34.73
2019-04-07T00:54:52.304Z,36.28
2019-04-07T00:57:21.143Z,34.23
2019-04-07T00:59:49.708Z,34.00
2019-04-07T01:02:18.478Z,35.23
2019-04-07T01:04:47.272Z,35.70
2019-04-07T01:07:16.192Z,34.20
2019-04-07T01:09:45.333Z,35.13
2019-04-07T01:12:14.120Z,35.15
2019-04-07T01:14:43.376Z,34.40
2019-04-07T01:17:12.598Z,35.73
2019-04-07T01:19:41.603Z,35.25
2019-04-07T01:22:10.175Z,34.20
2019-04-07T01:24:39.491Z,34.30
2019-04-07T01:27:08.540Z,36.00
2019-04-07T01:29:37.443Z,34.75
2019-04-07T01:32:07.150Z,34.63
2019-04-07T01:34:36.271Z,35.65
2019-04-07T01:37:05.610Z,33.80
2019-04-07T01:39:34.976Z,36.13
2019-04-07T01:42:10.024Z,37.45
2019-04-07T01:44:48.024Z,37.55
2019-04-07T01:47:25.228Z,35.95
2019-04-07T01:50:01.855Z,36.73
2019-04-07T01:52:47.026Z,38.25
2019-04-07T01:55:44.294Z,37.75
2019-04-07T01:58:48.201Z,37.90
2019-04-07T02:01:31.397Z,37.93
2019-04-07T02:04:06.021Z,38.10
2019-04-07T02:07:10.719Z,39.35
2019-04-07T02:09:57.645Z,39.23
2019-04-07T02:12:48.983Z,38.30
2019-04-07T02:15:30.036Z,36.63
2019-04-07T02:18:07.116Z,38.48
2019-04-07T02:21:03.345Z,39.00
2019-04-07T02:24:00.966Z,36.68
2019-04-07T02:26:52.402Z,40.05
2019-04-07T02:29:39.971Z,39.85
2019-04-07T02:32:29.367Z,40.05
2019-04-07T02:35:26.781Z,38.45
2019-04-07T02:38:15.079Z,39.90
2019-04-07T02:40:51.474Z,41.18
2019-04-07T02:43:34.050Z,40.90
2019-04-07T02:46:23.673Z,40.45
2019-04-07T02:48:59.162Z,41.70
2019-04-07T02:51:46.193Z,41.25
2019-04-07T02:54:33.077Z,39.70
2019-04-07T02:57:22.104Z,40.28
2019-04-07T02:59:57.906Z,42.00
2019-04-07T03:02:33.464Z,41.13
2019-04-07T03:05:24.806Z,39.78
2019-04-07T03:08:05.929Z,40.92
2019-04-07T03:11:12.547Z,42.23
2019-04-07T03:14:07.818Z,41.02
2019-04-07T03:16:42.325Z,40.98
2019-04-07T03:19:19.335Z,40.65
2019-04-07T03:21:58.388Z,42.88
2019-04-07T03:24:45.151Z,40.83
2019-04-07T03:27:32.082Z,41.15
2019-04-07T03:30:13.993Z,41.58
2019-04-07T03:33:14.257Z,41.90
2019-04-07T03:36:06.818Z,39.85
2019-04-07T03:38:55.738Z,42.40
2019-04-07T03:41:33.226Z,41.83
2019-04-07T03:44:29.166Z,43.63
2019-04-07T03:47:23.782Z,42.78
2019-04-07T03:49:57.124Z,42.98
2019-04-07T03:52:35.445Z,42.25
2019-04-07T03:55:31.093Z,41.98
2019-04-07T03:58:14.026Z,39.90
2019-04-07T04:01:30.216Z,41.92
2019-04-07T04:04:15.751Z,40.80
2019-04-07T04:07:17.830Z,40.28
2019-04-07T04:09:41.294Z,43.13
2019-04-07T04:12:17.154Z,42.25
2019-04-07T04:15:01.950Z,42.35
2019-04-07T04:17:30.845Z,42.45
2019-04-07T04:19:59.506Z,42.58
2019-04-07T04:22:29.140Z,41.35
2019-04-07T04:24:58.463Z,41.18
2019-04-07T04:27:28.090Z,40.20
2019-04-07T04:29:56.892Z,41.63
2019-04-07T04:32:25.710Z,43.25
2019-04-07T04:34:54.714Z,41.20
2019-04-07T04:37:36.087Z,42.53
2019-04-07T04:39:54.427Z,43.15
2019-04-07T04:42:25.050Z,40.23
2019-04-07T04:44:54.368Z,41.45
2019-04-07T04:47:23.255Z,42.65
2019-04-07T04:49:52.794Z,43.10
2019-04-07T04:52:22.026Z,41.90
2019-04-07T04:54:51.725Z,42.15
2019-04-07T04:57:20.766Z,42.73
2019-04-07T04:59:49.453Z,42.00
2019-04-07T05:02:18.942Z,40.28
2019-04-07T05:04:47.850Z,41.77
2019-04-07T05:07:16.830Z,46.53
2019-04-07T05:09:50.330Z,44.88
2019-04-07T05:12:16.310Z,43.02
2019-04-07T05:14:45.555Z,43.68
2019-04-07T05:17:14.321Z,44.95
2019-04-07T05:19:42.975Z,45.20
2019-04-07T05:22:12.525Z,43.55
2019-04-07T05:24:41.280Z,43.28
2019-04-07T05:27:10.599Z,43.30
2019-04-07T05:29:40.243Z,43.85
2019-04-07T05:32:08.856Z,43.33
2019-04-07T05:34:38.196Z,42.78
2019-04-07T05:37:06.800Z,41.30
2019-04-07T05:39:36.150Z,42.88
2019-04-07T05:42:05.026Z,43.78
2019-04-07T05:44:34.388Z,43.20
2019-04-07T05:49:43.655Z,43.10
2019-04-07T05:52:12.783Z,43.92
2019-04-07T05:54:41.340Z,43.08
2019-04-07T05:57:10.548Z,41.42
2019-04-07T05:59:39.891Z,40.88
2019-04-07T06:02:09.919Z,42.50
2019-04-07T06:04:38.437Z,43.90
2019-04-07T06:07:08.033Z,39.78
2019-04-07T06:09:37.265Z,40.08
2019-04-07T06:12:07.959Z,39.75
2019-04-07T06:14:36.887Z,38.70
2019-04-07T06:17:05.469Z,37.67
2019-04-07T06:19:37.360Z,35.00
2019-04-07T06:22:05.465Z,34.60
2019-04-07T06:24:35.140Z,34.98
2019-04-07T06:27:04.383Z,34.73
2019-04-07T06:29:33.399Z,34.30
2019-04-07T06:32:04.569Z,34.58
2019-04-07T06:34:32.652Z,34.67
2019-04-07T06:37:01.203Z,34.73
2019-04-07T06:39:31.953Z,35.13
2019-04-07T06:42:01.391Z,36.25
2019-04-07T06:44:30.826Z,34.70
2019-04-07T06:47:25.005Z,33.18
2019-04-07T06:50:23.302Z,33.73
2019-04-07T06:52:58.958Z,33.78
2019-04-07T06:55:46.137Z,32.53
2019-04-07T06:58:41.739Z,34.23
2019-04-07T07:01:29.651Z,31.23
2019-04-07T07:04:16.788Z,30.80
2019-04-07T07:07:00.640Z,33.28
2019-04-07T07:09:45.889Z,34.18
2019-04-07T07:12:39.114Z,32.67
2019-04-07T07:15:18.412Z,35.10
2019-04-07T07:17:59.285Z,35.23
2019-04-07T07:21:03.728Z,35.43
2019-04-07T07:23:35.445Z,33.45
2019-04-07T07:26:04.278Z,34.43
2019-04-07T07:28:33.733Z,33.73
2019-04-07T07:31:04.345Z,31.42
2019-04-07T07:33:33.443Z,30.80
2019-04-07T07:36:02.484Z,29.75
2019-04-07T07:38:32.731Z,30.48
2019-04-07T07:41:03.584Z,29.07
2019-04-07T07:43:32.419Z,28.85
2019-04-07T07:46:00.964Z,26.75
2019-04-07T07:48:30.258Z,26.37
2019-04-07T07:50:59.079Z,25.32
2019-04-07T07:53:28.593Z,24.20
2019-04-07T07:55:57.654Z,25.02
2019-04-07T07:58:30.762Z,23.42
2019-04-07T08:00:59.563Z,22.50
2019-04-07T08:03:27.307Z,23.57
2019-04-07T08:05:56.541Z,22.00
2019-04-07T08:08:25.425Z,22.77
2019-04-07T08:10:59.086Z,24.45
2019-04-07T08:13:24.836Z,22.73
2019-04-07T08:15:56.596Z,22.52
2019-04-07T08:18:23.974Z,21.50
2019-04-07T08:20:53.297Z,20.12
2019-04-07T08:23:22.062Z,20.82
2019-04-07T08:25:52.898Z,19.67
2019-04-07T08:28:21.668Z,19.82
2019-04-07T08:30:50.343Z,18.12
2019-04-07T08:33:20.131Z,19.55
2019-04-07T08:35:49.107Z,18.57
2019-04-07T08:38:19.979Z,19.82
2019-04-07T08:40:49.683Z,17.65
2019-04-07T08:43:21.359Z,17.05
2019-04-07T08:45:48.973Z,16.12
2019-04-07T08:48:19.405Z,16.77
2019-04-07T08:50:48.593Z,15.50
2019-04-07T08:53:17.332Z,15.43
2019-04-07T08:55:48.609Z,15.03
2019-04-07T08:58:24.959Z,15.08
2019-04-07T09:00:51.615Z,15.65
2019-04-07T09:03:19.730Z,14.23
2019-04-07T09:05:48.284Z,13.80
2019-04-07T09:08:17.249Z,14.55
2019-04-07T09:10:54.945Z,13.25
2019-04-07T09:13:24.082Z,12.53
2019-04-07T09:16:19.940Z,12.75
2019-04-07T09:19:06.043Z,13.22
2019-04-07T09:21:47.550Z,13.85
2019-04-07T09:24:31.399Z,12.07
2019-04-07T09:27:14.697Z,11.97
2019-04-07T09:29:58.245Z,12.07
2019-04-07T09:32:41.604Z,10.85
2019-04-07T09:35:24.047Z,9.73
2019-04-07T09:38:10.872Z,10.53
2019-04-07T09:41:17.239Z,10.65
2019-04-07T09:43:55.302Z,10.88
2019-04-07T09:46:44.775Z,10.20
2019-04-07T09:49:31.028Z,11.10
2019-04-07T09:52:18.581Z,9.80
2019-04-07T09:55:24.350Z,9.43
2019-04-07T09:58:09.222Z,9.25
2019-04-07T10:00:57.358Z,9.35
2019-04-07T10:03:51.839Z,9.90
2019-04-07T10:06:39.705Z,10.18
2019-04-07T10:09:20.330Z,9.78
2019-04-07T10:12:11.764Z,8.40
2019-04-07T10:15:03.121Z,8.45
2019-04-07T10:17:43.831Z,8.50
2019-04-07T10:20:28.590Z,9.43
2019-04-07T10:23:16.930Z,9.30
2019-04-07T10:25:56.152Z,8.25
2019-04-07T10:28:41.644Z,8.70
2019-04-07T10:31:45.269Z,9.58
2019-04-07T10:34:23.722Z,9.88
2019-04-07T10:37:10.203Z,9.23
2019-04-07T10:39:56.016Z,9.38
2019-04-07T10:42:42.161Z,9.08
2019-04-07T10:45:30.512Z,9.30
2019-04-07T10:48:34.296Z,9.28
2019-04-07T10:51:23.068Z,9.78
2019-04-07T10:54:01.572Z,10.15
2019-04-07T10:56:49.757Z,9.73
2019-04-07T10:59:27.952Z,8.78
2019-04-07T11:02:15.137Z,9.83
2019-04-07T11:05:03.338Z,9.43
2019-04-07T11:07:51.519Z,10.18
2019-04-07T11:10:34.550Z,9.68
2019-04-07T11:13:13.525Z,10.50
2019-04-07T11:16:00.319Z,11.78
2019-04-07T11:18:46.887Z,12.53
2019-04-07T11:21:53.505Z,11.90
2019-04-07T11:24:50.586Z,12.10
2019-04-07T11:27:56.616Z,11.65
2019-04-07T11:30:52.090Z,11.88
2019-04-07T11:33:41.377Z,12.00
2019-04-07T11:36:18.042Z,13.03
2019-04-07T11:39:20.536Z,12.00
2019-04-07T11:42:08.862Z,12.15
2019-04-07T11:44:51.482Z,13.15
2019-04-07T11:47:28.626Z,11.97
2019-04-07T11:50:15.585Z,13.00
2019-04-07T11:53:03.964Z,12.98
2019-04-07T11:55:51.120Z,11.40
2019-04-07T11:58:39.795Z,11.90
2019-04-07T12:01:46.074Z,13.00
2019-04-07T12:04:36.682Z,13.00
2019-04-07T12:07:25.035Z,12.80
2019-04-07T12:10:12.553Z,12.60
2019-04-07T12:12:53.857Z,12.95
2019-04-07T12:15:42.954Z,11.63
2019-04-07T12:18:30.864Z,11.43
2019-04-07T12:21:24.082Z,11.90
2019-04-07T12:24:10.585Z,11.28
2019-04-07T12:26:47.392Z,12.03
2019-04-07T12:29:35.104Z,13.03
2019-04-07T12:32:26.689Z,12.18
2019-04-07T12:35:23.672Z,12.75
2019-04-07T12:38:01.531Z,12.47
2019-04-07T12:40:38.910Z,13.43
2019-04-07T12:43:21.824Z,13.62
2019-04-07T12:46:07.159Z,13.80
2019-04-07T12:48:46.974Z,12.88
2019-04-07T12:51:41.443Z,13.43
2019-04-07T12:57:17.688Z,12.82
2019-04-07T13:00:06.081Z,11.95
2019-04-07T13:02:53.226Z,12.20
2019-04-07T13:05:49.865Z,12.05
2019-04-07T13:08:28.618Z,11.95
2019-04-07T13:11:11.211Z,13.10
2019-04-07T13:13:49.509Z,12.90
2019-04-07T13:16:34.850Z,13.80
2019-04-07T13:19:16.378Z,13.45
2019-04-07T13:21:57.273Z,12.37
2019-04-07T13:24:39.365Z,11.85
2019-04-07T13:27:28.019Z,12.23
2019-04-07T13:30:03.240Z,12.70
2019-04-07T13:32:57.527Z,13.25
2019-04-07T13:35:34.183Z,12.90
2019-04-07T13:38:22.018Z,13.55
2019-04-07T13:41:01.834Z,13.90
2019-04-07T13:43:44.277Z,12.65
2019-04-07T13:46:35.684Z,12.33
2019-04-07T13:49:15.858Z,13.28
2019-04-07T13:52:02.458Z,12.20
2019-04-07T13:55:04.525Z,12.60
2019-04-07T13:57:50.396Z,12.93
2019-04-07T14:00:48.291Z,13.25
2019-04-07T14:03:45.276Z,11.88
2019-04-07T14:06:23.799Z,11.73
2019-04-07T14:09:06.768Z,12.07
2019-04-07T14:11:58.250Z,11.68
2019-04-07T14:14:36.217Z,12.37
2019-04-07T14:17:27.552Z,11.73
2019-04-07T14:20:15.065Z,12.60
2019-04-07T14:22:58.693Z,12.25
2019-04-07T14:25:34.616Z,12.28
2019-04-07T14:28:13.002Z,14.78
2019-04-07T14:31:09.364Z,11.03
2019-04-07T14:34:03.554Z,10.80
2019-04-07T14:36:58.946Z,11.40
2019-04-07T14:39:53.432Z,11.35
2019-04-07T14:42:36.149Z,10.98
2019-04-07T14:45:31.887Z,11.68
2019-04-07T14:48:29.353Z,11.88
2019-04-07T14:51:08.689Z,11.30
2019-04-07T14:53:51.412Z,11.25
2019-04-07T14:56:38.605Z,11.12
2019-04-07T14:59:28.438Z,11.35
2019-04-07T15:02:00.545Z,11.25
2019-04-07T15:04:51.006Z,11.43
2019-04-07T15:07:39.426Z,10.93
2019-04-07T15:10:19.919Z,11.28
2019-04-07T15:12:52.430Z,10.03
2019-04-07T15:15:21.455Z,10.90
2019-04-07T15:17:50.143Z,11.05
2019-04-07T15:20:19.599Z,10.72
2019-04-07T15:22:49.411Z,11.75
2019-04-07T15:25:18.441Z,11.73
2019-04-07T15:27:47.734Z,12.70
2019-04-07T15:30:16.972Z,12.43
2019-04-07T15:32:45.921Z,13.70
2019-04-07T15:35:15.495Z,11.28
2019-04-07T15:37:45.067Z,11.53
2019-04-07T15:40:14.060Z,11.55
2019-04-07T15:42:44.422Z,10.95
2019-04-07T15:45:13.444Z,10.65
2019-04-07T15:47:42.498Z,12.33
2019-04-07T15:50:11.723Z,12.30
2019-04-07T15:52:43.744Z,11.15
2019-04-07T15:55:11.846Z,11.70
2019-04-07T15:57:40.743Z,11.43
2019-04-07T16:00:10.079Z,11.43
2019-04-07T16:02:42.181Z,14.78
2019-04-07T16:05:10.507Z,13.18
2019-04-07T16:07:39.248Z,15.00
2019-04-07T16:10:08.505Z,17.40
2019-04-07T16:12:44.879Z,12.65
2019-04-07T16:15:08.010Z,12.98
2019-04-07T16:17:37.272Z,12.37
2019-04-07T16:20:18.821Z,12.93
2019-04-07T16:22:38.013Z,13.68
2019-04-07T16:25:08.762Z,13.00
2019-04-07T16:27:39.387Z,11.65
2019-04-07T16:30:08.689Z,11.63
2019-04-07T16:32:39.083Z,12.23
2019-04-07T16:35:12.933Z,26.05
2019-04-07T16:37:39.392Z,21.20
2019-04-07T16:40:11.467Z,162.97
2019-04-07T16:42:40.006Z,35.17
2019-04-07T16:45:11.921Z,107.92
2019-04-07T16:47:39.395Z,84.47
2019-04-07T16:50:08.729Z,13.83
2019-04-07T16:52:37.487Z,31.17
2019-04-07T16:55:28.258Z,30.97
2019-04-07T16:58:00.354Z,114.00
2019-04-07T17:00:28.294Z,15.63
2019-04-07T17:02:56.926Z,15.13
2019-04-07T17:05:25.749Z,16.77
2019-04-07T17:07:55.982Z,16.00
2019-04-07T17:10:28.739Z,16.45
2019-04-07T17:12:56.616Z,16.32
2019-04-07T17:15:26.256Z,34.58
2019-04-07T17:17:54.895Z,16.30
2019-04-07T17:20:27.211Z,16.40
2019-04-07T17:22:54.464Z,15.48
2019-04-07T17:25:23.232Z,16.77
2019-04-07T17:27:51.983Z,16.15
2019-04-07T17:30:24.387Z,16.60
2019-04-07T17:32:52.465Z,17.05
2019-04-07T17:35:21.982Z,20.17
2019-04-07T17:37:51.219Z,17.65
2019-04-07T17:40:22.677Z,31.97
2019-04-07T17:42:53.087Z,17.57
2019-04-07T17:45:56.782Z,18.10
2019-04-07T17:48:50.386Z,18.62
2019-04-07T17:51:42.214Z,17.27
2019-04-07T17:54:29.665Z,18.00
2019-04-07T17:57:23.737Z,26.45
2019-04-07T18:00:07.944Z,18.95
2019-04-07T18:02:57.811Z,17.45
2019-04-07T18:05:43.191Z,20.25
2019-04-07T18:08:29.977Z,17.75
2019-04-07T18:11:37.744Z,19.12
2019-04-07T18:14:28.356Z,22.48
2019-04-07T18:17:06.681Z,19.02
2019-04-07T18:19:45.433Z,18.95
2019-04-07T18:22:33.651Z,19.90
2019-04-07T18:25:21.649Z,19.15
2019-04-07T18:28:05.547Z,19.07
2019-04-07T18:30:52.653Z,19.00
2019-04-07T18:33:37.926Z,19.20
2019-04-07T18:36:25.727Z,19.00
2019-04-07T18:39:24.108Z,19.48
2019-04-07T18:42:21.961Z,21.30
2019-04-07T18:45:12.250Z,21.95
2019-04-07T18:47:48.262Z,22.87
2019-04-07T18:50:46.583Z,43.83
2019-04-07T18:53:33.796Z,20.12
2019-04-07T18:56:16.101Z,23.32
2019-04-07T18:59:10.002Z,32.38
2019-04-07T19:02:11.833Z,21.30
2019-04-07T19:04:52.190Z,19.20
2019-04-07T19:07:45.897Z,20.68
2019-04-07T19:10:33.468Z,19.75
2019-04-07T19:13:15.878Z,22.25
2019-04-07T19:15:55.478Z,25.85
2019-04-07T19:18:34.752Z,19.55
2019-04-07T19:21:37.630Z,20.48
2019-04-07T19:24:25.001Z,20.00
2019-04-07T19:27:17.699Z,21.07
2019-04-07T19:30:02.542Z,20.62
2019-04-07T19:32:52.650Z,20.55
2019-04-07T19:35:49.024Z,20.90
2019-04-07T19:38:27.366Z,20.65
2019-04-07T19:41:16.723Z,20.82
2019-04-07T19:43:54.359Z,20.35
2019-04-07T19:46:46.575Z,19.67
2019-04-07T19:49:41.095Z,18.80
2019-04-07T19:52:33.864Z,19.65
2019-04-07T19:55:22.763Z,19.87
2019-04-07T19:58:00.631Z,19.25
2019-04-07T20:01:01.748Z,19.17
2019-04-07T20:03:53.919Z,19.62
2019-04-07T20:06:40.018Z,19.95
2019-04-07T20:09:27.825Z,20.20
2019-04-07T20:12:08.536Z,19.98
2019-04-07T20:15:03.048Z,20.35
2019-04-07T20:17:44.068Z,19.23
2019-04-07T20:20:31.236Z,19.07
2019-04-07T20:23:22.872Z,20.60
2019-04-07T20:26:00.113Z,18.82
2019-04-07T20:28:35.852Z,21.00
2019-04-07T20:31:24.158Z,20.17
2019-04-07T20:34:02.178Z,19.55
2019-04-07T20:36:48.425Z,21.82
2019-04-07T20:39:37.262Z,21.70
2019-04-07T20:42:19.309Z,17.62
2019-04-07T20:45:15.348Z,22.10
2019-04-07T20:48:13.585Z,19.85
2019-04-07T20:50:50.912Z,19.35
2019-04-07T20:53:29.694Z,20.30
2019-04-07T20:56:13.026Z,20.27
2019-04-07T21:02:00.788Z,19.73
2019-04-07T21:04:39.784Z,19.70
2019-04-07T21:07:19.389Z,19.67
2019-04-07T21:09:56.646Z,20.43
2019-04-07T21:12:37.053Z,21.10
2019-04-07T21:15:29.614Z,19.65
2019-04-07T21:18:23.883Z,19.73
2019-04-07T21:21:15.148Z,20.15
2019-04-07T21:23:55.261Z,19.80
2019-04-07T21:26:30.087Z,20.50
2019-04-07T21:29:11.285Z,20.10
2019-04-07T21:31:47.680Z,19.55
2019-04-07T21:34:36.435Z,19.70
2019-04-07T21:37:33.781Z,19.23
2019-04-07T21:40:32.341Z,19.27
2019-04-07T21:43:17.970Z,19.92
2019-04-07T21:46:04.914Z,19.45
2019-04-07T21:48:45.924Z,20.50
2019-04-07T21:51:26.882Z,19.52
2019-04-07T21:54:21.531Z,19.80
2019-04-07T21:57:14.026Z,19.25
2019-04-07T22:00:04.989Z,20.68
2019-04-07T22:03:05.603Z,20.10
2019-04-07T22:05:50.991Z,20.88
2019-04-07T22:08:25.535Z,22.70
2019-04-07T22:10:55.372Z,24.77
2019-04-07T22:13:24.119Z,22.90
2019-04-07T22:15:58.585Z,21.07
2019-04-07T22:18:23.665Z,21.70
2019-04-07T22:20:54.769Z,21.95
2019-04-07T22:23:23.034Z,21.85
2019-04-07T22:25:52.364Z,21.07
2019-04-07T22:28:21.084Z,22.22
2019-04-07T22:30:50.951Z,22.22
2019-04-07T22:33:23.028Z,22.20
2019-04-07T22:35:51.067Z,21.70
2019-04-07T22:38:22.928Z,22.37
2019-04-07T22:40:50.462Z,22.02
2019-04-07T22:43:20.084Z,21.97
2019-04-07T22:45:59.004Z,21.25
2019-04-07T22:48:23.563Z,21.87
2019-04-07T22:50:51.755Z,22.60
2019-04-07T22:53:22.589Z,23.30
2019-04-07T22:55:51.228Z,22.42
2019-04-07T22:58:20.175Z,22.22
2019-04-07T23:00:48.983Z,23.50
2019-04-07T23:03:17.670Z,21.52
2019-04-07T23:05:47.051Z,22.93
2019-04-07T23:08:15.596Z,21.93
2019-04-07T23:10:44.316Z,22.60
2019-04-07T23:13:13.296Z,24.20
2019-04-07T23:15:45.487Z,22.70
2019-04-07T23:18:12.599Z,22.32
2019-04-07T23:20:41.722Z,23.25
2019-04-07T23:23:10.994Z,23.15
2019-04-07T23:25:39.504Z,23.47
2019-04-07T23:28:08.243Z,23.15
2019-04-07T23:30:36.950Z,23.42
2019-04-07T23:33:06.242Z,22.62
2019-04-07T23:35:35.117Z,23.85
2019-04-07T23:38:03.765Z,24.92
2019-04-07T23:40:32.689Z,24.25
2019-04-07T23:43:01.316Z,23.02
2019-04-07T23:45:29.849Z,23.52
2019-04-07T23:47:58.773Z,24.02
2019-04-07T23:50:27.527Z,25.48
2019-04-07T23:53:00.266Z,23.87
2019-04-07T23:55:29.499Z,22.77
2019-04-07T23:57:58.035Z,25.57
